Main page
METAR-TAF:

METAR-TAF

Airports :

Ottumwa Regional Airport

Ottumwa, Iowa, United States

latitude: 41-06-24N, longitude: 092-26-53W, elevation: 846 ft

Current weather observation

The report was made 53 minutes ago, at 00:53 UTC
Wind 9 mph from the West/Southwest
Temperature 37°F
Humidity 70%
Pressure 29.84 in. Hg
Visibility: 10 miles
Clear sky

METAR: KOTM 210053Z AUTO 24008KT 10SM CLR 03/M02 A2984 RMK AO2 SLP113 T00331022

Time: 19:46 (01:46 UTC)

Forecast

The report was made 2 hours and 16 minutes ago, at 23:30 UTC
Forecast valid from 21 at 00 UTC to 21 at 24 UTC
Wind 12 mph from the West/Southwest
Visibility: 6 miles
Clear sky
From 21 at 0500 UTC
Wind 10 mph from the West
Visibility: 6 miles
Clear sky
From 21 at 1900 UTC
Wind 15 mph from the West/Northwest with gusts up to 23 mph
Visibility: 6 miles
Few clouds at a height of 25000 ft

TAF: KOTM 202330Z 2100/2124 24010KT P6SM SKC FM210500 27009KT P6SM SKC FM211900 29013G20KT P6SM FEW250

Weather observations and forecasts of more than 4000 airports (METAR and TAF reports).

The available stations are represented by yellow and red dots on the map.

Hover mouse over dot to see the name of the station.

Then click to see weather observations and forecasts.

To change the map : click on the green buttons with a black cross to zoom in, on the green button with a dash to zoom out, or on the green arrows for adjacent maps.


METAR-TAF: